Terminal Aerodrome Forecast
Issued by NWS

Home | Current Version | Previous Version | Text Only | Print | Product List | Glossary On
Versions: 1 2 3 4 5 6 7 8 9 10 11 12 13 14 15 16 17 18 19 20 21 22
000
FTUS44 KBMX 220800 AAB
TAFEET
TAF AMD
KEET 220808Z 2208/2306 10003KT P6SM OVC006
     FM221100 10005KT P6SM VCSH SCT005 BKN025
     FM221700 11005KT P6SM VCSH BKN035=

USA.gov is the U.S. government's official web portal to all federal, state and local government web resources and services.